Time;durP1;ratioP1;P1;durP2;ratioP2;P2;SDS_P1;SDS_P2;PMS_P1;PMS_P2;Temp;Humidity;BMP_temperature;BMP_pressure;BME280_temperature;BME280_humidity;BME280_pressure;Samples;Min_cycle;Max_cycle;Signal;HPM_P1;HPM_P2
2024/01/05 00:02:08;;;;;;;15.88;3.90;;;;;;;14.26;100.00;101292.41;10618053;27;20043;-85
2024/01/05 00:07:31;;;;;;;13.57;4.60;;;;;;;14.19;100.00;101301.19;10588412;28;20452;-84
2024/01/05 00:12:53;;;;;;;10.57;5.28;;;;;;;14.16;100.00;101306.50;10601400;28;20047;-87
2024/01/05 00:18:17;;;;;;;24.60;13.90;;;;;;;14.10;100.00;101311.75;10617010;28;20131;-87
2024/01/05 00:23:39;;;;;;;48.08;43.03;;;;;;;14.22;100.00;101306.56;10601159;28;20053;-87
2024/01/05 00:29:04;;;;;;;14.20;10.43;;;;;;;14.30;100.00;101310.19;10602230;28;20051;-86
2024/01/05 00:34:28;;;;;;;16.20;5.28;;;;;;;14.47;100.00;101298.84;10616222;27;20398;-86
2024/01/05 00:39:50;;;;;;;12.38;4.07;;;;;;;14.70;100.00;101299.91;10624624;27;20436;-88
2024/01/05 00:45:20;;;;;;;17.80;7.25;;;;;;;14.77;100.00;101307.91;10600286;27;20043;-83
2024/01/05 00:50:44;;;;;;;25.92;12.93;;;;;;;14.86;100.00;101300.91;10606943;27;20074;-82
2024/01/05 00:56:07;;;;;;;16.60;7.88;;;;;;;14.87;100.00;101302.69;10590353;27;20151;-83
2024/01/05 01:01:29;;;;;;;14.43;7.00;;;;;;;14.82;100.00;101315.94;10609217;27;20053;-83
2024/01/05 01:06:53;;;;;;;8.70;4.68;;;;;;;15.08;100.00;101325.00;10605882;27;20437;-83
2024/01/05 01:12:15;;;;;;;15.15;9.93;;;;;;;15.46;100.00;101311.88;10596136;27;20035;-86
2024/01/05 01:17:37;;;;;;;22.50;13.55;;;;;;;15.56;100.00;101306.66;10609123;27;20077;-84
2024/01/05 01:23:01;;;;;;;42.35;38.00;;;;;;;15.69;100.00;101311.09;10608931;27;20046;-85
2024/01/05 01:28:24;;;;;;;16.73;9.60;;;;;;;15.62;100.00;101315.50;10588096;27;20496;-84
2024/01/05 01:33:46;;;;;;;13.68;5.32;;;;;;;15.63;100.00;101319.97;10595257;27;20182;-84
2024/01/05 01:39:11;;;;;;;10.50;4.47;;;;;;;15.75;100.00;101324.47;10608778;27;20095;-83
2024/01/05 01:44:33;;;;;;;12.30;4.57;;;;;;;15.61;100.00;101318.19;10607865;27;20058;-83
2024/01/05 01:49:57;;;;;;;11.60;4.32;;;;;;;15.73;100.00;101326.22;10607247;27;20061;-83
2024/01/05 01:55:22;;;;;;;23.58;9.88;;;;;;;15.57;100.00;101317.28;10591573;27;20134;-83
2024/01/05 02:00:46;;;;;;;15.15;7.38;;;;;;;15.22;100.00;101316.19;10593805;27;20474;-83
2024/01/05 02:06:14;;;;;;;27.08;11.73;;;;;;;15.03;100.00;101325.84;10579709;27;20054;-84
2024/01/05 02:11:42;;;;;;;10.20;4.93;;;;;;;14.73;100.00;101334.47;10606381;27;20040;-83
2024/01/05 02:17:25;;;;;;;12.27;3.63;;;;;;;15.00;100.00;101302.78;10592827;27;20186;-84
2024/01/05 02:23:01;;;;;;;19.40;7.18;;;;;;;14.98;100.00;101304.53;10620916;27;20073;-86
2024/01/05 02:28:28;;;;;;;14.43;6.47;;;;;;;14.68;100.00;101317.63;10619734;27;20309;-85
2024/01/05 02:33:50;;;;;;;16.55;6.53;;;;;;;14.63;100.00;101314.94;10604552;27;20051;-85
2024/01/05 02:39:13;;;;;;;15.07;5.15;;;;;;;14.33;100.00;101312.84;10605670;27;20076;-82
2024/01/05 02:44:37;;;;;;;10.38;4.20;;;;;;;14.13;100.00;101321.50;10604063;27;20480;-85
2024/01/05 02:50:00;;;;;;;10.63;3.80;;;;;;;14.03;100.00;101323.19;10618192;27;20055;-85
2024/01/05 02:55:22;;;;;;;11.50;3.83;;;;;;;14.11;100.00;101326.78;10605502;27;20075;-83
2024/01/05 03:00:46;;;;;;;16.50;8.48;;;;;;;14.07;100.00;101321.44;10604129;27;20055;-84
2024/01/05 03:06:08;;;;;;;15.00;6.13;;;;;;;14.00;100.00;101323.13;10604156;27;20518;-84
2024/01/05 03:11:31;;;;;;;17.15;11.40;;;;;;;13.88;100.00;101325.66;10616788;27;20039;-84
2024/01/05 03:16:55;;;;;;;15.68;10.80;;;;;;;13.73;100.00;101334.34;10603944;27;20047;-85
2024/01/05 03:22:17;;;;;;;7.47;3.72;;;;;;;13.86;100.00;101343.31;10606555;27;20047;-84
2024/01/05 03:27:40;;;;;;;12.15;5.65;;;;;;;13.82;100.00;101353.03;10618342;27;20055;-84
2024/01/05 03:33:04;;;;;;;13.85;7.30;;;;;;;14.20;100.00;101353.44;10617336;27;20479;-88
2024/01/05 03:38:27;;;;;;;16.23;8.45;;;;;;;14.16;100.00;101348.09;10608026;27;20050;-83
2024/01/05 03:43:49;;;;;;;8.65;3.88;;;;;;;13.79;100.00;101350.31;10617373;27;20092;-83
2024/01/05 03:49:14;;;;;;;6.95;2.75;;;;;;;13.51;100.00;101373.00;10617474;27;20047;-83
2024/01/05 03:54:36;;;;;;;8.82;2.88;;;;;;;13.70;100.00;101373.22;10590320;27;20067;-85
2024/01/05 03:59:58;;;;;;;7.15;3.30;;;;;;;14.02;100.00;101370.94;10601695;28;20058;-84
2024/01/05 04:05:23;;;;;;;9.15;3.22;;;;;;;13.77;100.00;101383.94;10568401;28;20058;-83
2024/01/05 04:10:45;;;;;;;12.75;4.63;;;;;;;13.57;100.00;101375.72;10622616;27;20089;-83
2024/01/05 04:16:08;;;;;;;8.48;3.75;;;;;;;13.12;100.00;101398.91;10611942;27;20088;-84
2024/01/05 04:21:32;;;;;;;7.70;3.20;;;;;;;13.22;100.00;101403.50;10625614;27;20043;-82
2024/01/05 04:26:54;;;;;;;7.25;3.35;;;;;;;13.60;100.00;101403.13;10596110;27;20062;-84
2024/01/05 04:32:17;;;;;;;23.33;12.32;;;;;;;13.40;100.00;101406.41;10596490;27;20495;-85
2024/01/05 04:37:41;;;;;;;8.00;4.70;;;;;;;13.04;100.00;101421.75;10621428;27;20058;-83
2024/01/05 04:43:04;;;;;;;10.27;3.47;;;;;;;13.04;100.00;101432.34;10617760;27;20111;-83
2024/01/05 04:48:26;;;;;;;9.30;3.75;;;;;;;13.27;100.00;101443.31;10609955;27;20096;-82
2024/01/05 04:53:50;;;;;;;14.23;5.97;;;;;;;13.39;100.00;101441.75;10603815;27;20040;-83
2024/01/05 04:59:13;;;;;;;9.48;4.18;;;;;;;13.89;100.00;101449.53;10581989;27;20043;-81
2024/01/05 05:04:35;;;;;;;12.25;6.03;;;;;;;14.00;100.00;101445.25;10608632;27;20078;-83
2024/01/05 05:09:59;;;;;;;9.55;4.45;;;;;;;13.97;100.00;101453.19;10623737;27;20122;-82
2024/01/05 05:15:21;;;;;;;5.35;2.58;;;;;;;13.41;100.00;101453.28;10608940;27;20055;-82
2024/01/05 05:20:44;;;;;;;7.43;5.55;;;;;;;13.25;100.00;101464.53;10620537;27;20047;-82
2024/01/05 05:26:08;;;;;;;12.00;7.20;;;;;;;13.22;100.00;101474.19;10612773;27;20050;-82
2024/01/05 05:31:30;;;;;;;11.38;8.00;;;;;;;13.39;100.00;101473.56;10621231;27;20786;-82
2024/01/05 05:36:52;;;;;;;16.52;11.05;;;;;;;13.42;100.00;101478.03;10623339;27;20071;-83
2024/01/05 05:42:16;;;;;;;15.48;10.35;;;;;;;13.63;100.00;101474.81;10578885;28;20043;-83
2024/01/05 05:47:39;;;;;;;14.80;9.25;;;;;;;13.89;100.00;101476.09;10583350;27;20088;-83
2024/01/05 05:53:01;;;;;;;14.70;8.43;;;;;;;13.93;100.00;101483.19;10570485;27;20130;-83
2024/01/05 05:58:26;;;;;;;14.77;8.13;;;;;;;13.89;100.00;101492.00;10564502;28;20437;-83
2024/01/05 06:03:49;;;;;;;15.00;10.75;;;;;;;14.05;100.00;101498.41;10577120;28;20054;-83
2024/01/05 06:09:14;;;;;;;13.38;9.27;;;;;;;14.19;100.00;101497.72;10550647;28;20146;-83
2024/01/05 06:14:38;;;;;;;17.10;8.52;;;;;;;14.45;100.00;101500.72;10578429;28;20043;-83
2024/01/05 06:20:00;;;;;;;28.45;18.65;;;;;;;14.49;100.00;101509.63;10564168;28;20059;-83
2024/01/05 06:25:23;;;;;;;47.17;34.72;;;;;;;16.18;100.00;101511.94;10562392;28;20044;-82
2024/01/05 06:30:46;;;;;;;45.90;35.55;;;;;;;18.89;100.00;101516.25;10563698;28;20058;-83
2024/01/05 06:36:09;;;;;;;33.80;19.25;;;;;;;20.34;100.00;101518.53;10576629;28;20058;-83
2024/01/05 06:41:31;;;;;;;31.38;17.88;;;;;;;20.39;100.00;101529.19;10577118;28;20035;-85
2024/01/05 06:46:55;;;;;;;31.58;18.50;;;;;;;18.85;100.00;101532.31;10574687;28;20055;-83
2024/01/05 06:52:17;;;;;;;40.35;23.02;;;;;;;18.18;100.00;101535.28;10573411;27;20092;-84
2024/01/05 06:57:40;;;;;;;53.40;24.42;;;;;;;19.22;100.00;101527.63;10604918;27;20104;-83
2024/01/05 07:03:04;;;;;;;31.88;19.65;;;;;;;22.38;95.75;101540.28;10585831;27;20657;-83
2024/01/05 07:08:27;;;;;;;23.35;15.90;;;;;;;24.72;73.32;101547.84;10590626;27;20120;-83
2024/01/05 07:13:49;;;;;;;20.27;11.90;;;;;;;26.88;59.27;101533.09;10618339;27;20051;-85
2024/01/05 07:19:13;;;;;;;19.20;10.25;;;;;;;28.21;52.33;101535.69;10617663;27;20047;-83
2024/01/05 07:24:37;;;;;;;16.88;9.73;;;;;;;29.27;48.67;101544.22;10603724;27;20050;-87
2024/01/05 07:29:59;;;;;;;14.00;7.47;;;;;;;29.68;46.86;101550.28;10575550;27;20059;-87
2024/01/05 07:35:23;;;;;;;9.85;4.07;;;;;;;29.88;46.63;101547.44;10617455;27;20050;-87
2024/01/05 07:40:45;;;;;;;13.45;5.60;;;;;;;30.47;44.35;101551.56;10585975;27;20067;-88
2024/01/05 07:46:08;;;;;;;10.30;3.40;;;;;;;30.25;44.04;101559.16;10617315;27;20054;-88
2024/01/05 07:51:32;;;;;;;9.60;3.90;;;;;;;30.75;41.88;101562.75;10612538;27;20051;-89
2024/01/05 07:56:54;;;;;;;6.35;2.60;;;;;;;31.20;40.35;101552.94;10602550;27;20035;-89
2024/01/05 08:02:17;;;;;;;8.35;3.22;;;;;;;31.67;39.26;101553.78;10611856;28;20139;-91
2024/01/05 08:07:41;;;;;;;6.38;2.67;;;;;;;31.43;39.03;101557.06;10582134;28;20047;-88
2024/01/05 08:13:03;;;;;;;11.10;3.30;;;;;;;30.85;39.21;101560.41;10588240;28;20541;-89
2024/01/05 08:18:26;;;;;;;7.38;2.80;;;;;;;31.72;37.53;101558.97;10583614;28;20394;-88
2024/01/05 08:23:53;;;;;;;9.35;3.20;;;;;;;32.31;36.28;101566.28;10602629;28;20050;-88
2024/01/05 08:29:21;;;;;;;9.85;2.83;;;;;;;32.72;35.57;101565.56;10601255;28;20099;-86
2024/01/05 08:34:44;;;;;;;7.40;2.45;;;;;;;32.96;35.03;101572.16;10602557;28;20055;-86
2024/01/05 08:40:13;;;;;;;9.85;3.00;;;;;;;33.74;34.34;101575.25;10609007;28;20399;-86
2024/01/05 08:45:36;;;;;;;9.80;3.60;;;;;;;30.47;39.30;101567.91;10603450;28;20050;-87
2024/01/05 08:50:58;;;;;;;7.40;3.33;;;;;;;29.30;42.12;101561.25;10589946;28;20043;-90
2024/01/05 08:56:22;;;;;;;12.57;4.10;;;;;;;27.40;46.02;101559.94;10612439;27;20055;-87
2024/01/05 09:01:45;;;;;;;10.25;2.70;;;;;;;28.32;44.01;101566.81;10605563;27;20289;-87
2024/01/05 09:07:07;;;;;;;15.07;3.40;;;;;;;29.80;41.18;101556.97;10609658;27;20046;-90
2024/01/05 09:12:32;;;;;;;8.40;4.00;;;;;;;31.24;37.90;101560.84;10617982;27;20602;-83
2024/01/05 09:17:54;;;;;;;15.73;6.07;;;;;;;31.71;37.30;101550.88;10606312;27;20295;-86
2024/01/05 09:23:17;;;;;;;7.45;2.28;;;;;;;33.54;33.96;101546.44;10587112;27;20066;-86
2024/01/05 09:28:41;;;;;;;11.45;3.30;;;;;;;33.71;33.45;101546.19;10620157;27;20046;-90
2024/01/05 09:34:03;;;;;;;8.55;2.65;;;;;;;34.20;32.55;101548.25;10606573;27;20066;-89
2024/01/05 09:39:26;;;;;;;10.75;4.32;;;;;;;34.22;31.43;101540.81;10604174;27;20058;-90
2024/01/05 09:44:52;;;;;;;7.13;3.88;;;;;;;33.69;31.27;101541.75;10607354;27;20051;-91
2024/01/05 09:50:17;;;;;;;10.18;5.22;;;;;;;34.04;31.15;101539.34;10606822;27;20055;-90
2024/01/05 09:55:40;;;;;;;10.98;3.05;;;;;;;33.91;31.58;101529.25;10605377;27;20047;-92
2024/01/05 10:01:11;;;;;;;7.22;2.30;;;;;;;34.62;30.67;101528.72;10578685;27;20035;-92
2024/01/05 10:06:33;;;;;;;12.27;6.32;;;;;;;34.66;30.67;101508.28;10576043;27;20445;-91
2024/01/05 10:11:55;;;;;;;12.27;6.30;;;;;;;33.53;31.69;101507.22;10605668;27;20047;-90
2024/01/05 10:17:20;;;;;;;8.10;2.40;;;;;;;33.75;31.55;101505.72;10614214;27;20054;-90
2024/01/05 10:22:43;;;;;;;7.20;2.97;;;;;;;33.72;30.94;101498.63;10590231;27;20609;-91
2024/01/05 10:28:21;;;;;;;24.77;14.85;;;;;;;32.24;32.41;101501.16;10592189;27;20099;-89
2024/01/05 10:33:52;;;;;;;9.40;2.88;;;;;;;32.77;32.14;101508.66;10599375;27;20043;-87
2024/01/05 10:39:20;;;;;;;12.13;3.83;;;;;;;33.41;31.75;101507.19;10605285;27;20488;-91
2024/01/05 10:44:47;;;;;;;9.05;4.10;;;;;;;32.45;32.75;101497.06;10605616;27;20059;-91
2024/01/05 10:50:11;;;;;;;13.00;5.45;;;;;;;30.65;35.10;101490.63;10605303;27;20067;-91
2024/01/05 10:55:34;;;;;;;15.38;4.95;;;;;;;29.77;36.94;101498.09;10593437;27;20059;-90
2024/01/05 11:00:57;;;;;;;9.02;3.50;;;;;;;30.09;36.50;101490.97;10614375;27;20047;-92
2024/01/05 11:06:21;;;;;;;10.90;4.68;;;;;;;30.95;35.98;101485.25;10607082;27;20081;-88
2024/01/05 11:12:09;;;;;;;10.93;3.10;;;;;;;31.22;35.80;101477.31;10603396;27;20583;-88
2024/01/05 11:17:57;;;;;;;8.73;2.20;;;;;;;29.91;37.52;101473.75;10602086;27;20096;-86
2024/01/05 11:23:25;;;;;;;9.45;2.75;;;;;;;29.37;39.19;101472.06;10599257;27;20054;-90
2024/01/05 11:28:47;;;;;;;11.05;5.18;;;;;;;29.02;39.42;101457.50;10585601;27;20571;-89
2024/01/05 11:34:11;;;;;;;11.60;4.55;;;;;;;28.61;41.34;101464.06;10586914;27;20047;-92
2024/01/05 11:39:45;;;;;;;12.20;4.90;;;;;;;28.84;41.21;101462.00;10603422;27;20050;-91
2024/01/05 11:45:12;;;;;;;7.63;2.85;;;;;;;28.99;40.73;101454.94;10568339;27;20039;-89
2024/01/05 11:50:36;;;;;;;11.88;4.13;;;;;;;27.96;42.36;101457.97;10611351;27;20054;-88
2024/01/05 11:56:17;;;;;;;10.40;5.03;;;;;;;26.97;45.25;101456.00;10593831;27;20491;-90
2024/01/05 12:01:42;;;;;;;10.18;4.07;;;;;;;26.53;46.73;101455.91;10592036;28;20125;-87
2024/01/05 12:07:04;;;;;;;36.20;16.95;;;;;;;26.15;49.05;101451.94;10603496;28;20410;-91
2024/01/05 12:12:32;;;;;;;98.95;73.00;;;;;;;25.75;50.95;101452.53;10614700;28;20079;-87
2024/01/05 12:18:03;;;;;;;9.93;5.30;;;;;;;25.07;53.45;101448.63;10602010;28;20478;-84
2024/01/05 12:23:26;;;;;;;14.30;8.65;;;;;;;24.76;57.24;101445.97;10582847;28;20043;-88
2024/01/05 12:28:51;;;;;;;56.00;42.95;;;;;;;24.46;64.71;101455.94;10586421;28;20050;-85
2024/01/05 12:34:16;;;;;;;8.60;4.50;;;;;;;24.21;69.07;101463.91;10590356;27;20047;-83
2024/01/05 12:39:39;;;;;;;12.48;5.75;;;;;;;23.94;76.13;101465.53;10579771;27;20059;-84
2024/01/05 12:45:06;;;;;;;11.43;4.32;;;;;;;23.53;80.93;101463.97;10595713;27;20049;-86
2024/01/05 12:50:30;;;;;;;19.27;12.80;;;;;;;23.22;83.90;101466.56;10607073;27;20043;-86
2024/01/05 12:55:52;;;;;;;11.95;3.95;;;;;;;23.00;87.58;101463.50;10620828;27;20058;-89
2024/01/05 13:01:18;;;;;;;8.43;3.63;;;;;;;22.97;90.10;101466.25;10594451;27;20039;-87
2024/01/05 13:06:42;;;;;;;102.00;76.53;;;;;;;23.02;92.56;101469.75;10592784;27;20051;-82
2024/01/05 13:12:06;;;;;;;12.45;4.35;;;;;;;23.27;92.08;101486.19;10597946;27;20163;-82
2024/01/05 13:17:30;;;;;;;10.80;3.88;;;;;;;23.43;94.67;101476.75;10607078;27;20043;-82
2024/01/05 13:22:54;;;;;;;8.90;2.47;;;;;;;23.21;97.98;101471.97;10606370;27;20521;-88
2024/01/05 13:28:19;;;;;;;16.00;9.50;;;;;;;22.59;100.00;101485.06;10604536;27;20058;-83
2024/01/05 13:33:45;;;;;;;58.47;41.50;;;;;;;21.97;100.00;101492.69;10605331;27;20059;-86
2024/01/05 13:39:08;;;;;;;8.93;3.90;;;;;;;21.33;100.00;101493.81;10592308;27;20039;-88
2024/01/05 13:44:31;;;;;;;133.48;87.70;;;;;;;21.16;100.00;101495.91;10601859;27;20139;-90
2024/01/05 13:49:58;;;;;;;16.52;7.28;;;;;;;21.14;100.00;101486.03;10591105;27;20073;-89
2024/01/05 13:55:26;;;;;;;14.73;5.88;;;;;;;20.92;100.00;101485.50;10583116;27;20039;-80
2024/01/05 14:00:50;;;;;;;16.38;5.53;;;;;;;20.65;100.00;101492.16;10587268;27;20039;-90
2024/01/05 14:06:14;;;;;;;59.78;30.63;;;;;;;20.47;100.00;101490.63;10608022;27;20047;-89
2024/01/05 14:11:37;;;;;;;17.55;8.25;;;;;;;20.22;100.00;101498.06;10573690;27;20448;-87
2024/01/05 14:16:59;;;;;;;11.68;4.05;;;;;;;20.02;100.00;101501.91;10605508;27;20073;-87
2024/01/05 14:22:23;;;;;;;12.15;4.85;;;;;;;19.84;100.00;101500.28;10604091;27;20367;-90
2024/01/05 14:27:46;;;;;;;10.82;3.72;;;;;;;19.63;100.00;101493.34;10634148;27;20575;-89
2024/01/05 14:33:08;;;;;;;15.90;8.25;;;;;;;19.42;100.00;101499.78;10598382;27;20043;-88
2024/01/05 14:38:32;;;;;;;19.80;7.65;;;;;;;19.25;100.00;101500.81;10602841;27;20051;-91
2024/01/05 14:43:55;;;;;;;16.88;6.38;;;;;;;19.02;100.00;101517.97;10604545;27;20047;-91
2024/01/05 14:49:17;;;;;;;19.77;8.80;;;;;;;18.87;100.00;101512.69;10589951;27;20046;-86
2024/01/05 14:54:41;;;;;;;26.45;12.43;;;;;;;18.72;100.00;101518.13;10602143;27;20047;-90
2024/01/05 15:00:04;;;;;;;36.47;20.67;;;;;;;18.51;100.00;101536.94;10603316;27;20096;-89
2024/01/05 15:05:27;;;;;;;91.45;69.10;;;;;;;18.33;100.00;101520.06;10581923;27;20043;-91
2024/01/05 15:10:51;;;;;;;100.15;83.60;;;;;;;18.13;100.00;101523.72;10580725;27;20406;-87
2024/01/05 15:16:13;;;;;;;31.50;26.17;;;;;;;17.75;100.00;101535.38;10603202;27;20051;-88
2024/01/05 15:21:35;;;;;;;30.58;19.52;;;;;;;17.80;100.00;101538.03;10589269;27;20046;-87
2024/01/05 15:27:00;;;;;;;31.98;28.30;;;;;;;17.68;100.00;101538.06;10602358;27;20069;-89
2024/01/05 15:32:23;;;;;;;40.08;32.83;;;;;;;17.42;100.00;101546.03;10587522;27;20039;-87
2024/01/05 15:37:45;;;;;;;24.33;14.88;;;;;;;17.07;100.00;101546.91;10587619;27;20543;-90
2024/01/05 15:43:10;;;;;;;18.70;10.40;;;;;;;16.90;100.00;101543.31;10607660;27;20549;-90
2024/01/05 15:48:32;;;;;;;15.50;8.32;;;;;;;16.78;100.00;101551.28;10592123;27;20058;-91
2024/01/05 15:53:55;;;;;;;24.80;20.30;;;;;;;16.64;100.00;101567.25;10593186;27;20139;-89
2024/01/05 15:59:19;;;;;;;21.48;14.45;;;;;;;16.56;100.00;101566.28;10601107;27;20491;-88
2024/01/05 16:04:41;;;;;;;40.88;36.50;;;;;;;16.43;100.00;101564.44;10604200;27;20142;-84
2024/01/05 16:10:04;;;;;;;39.05;32.85;;;;;;;16.17;100.00;101563.44;10614057;27;20051;-85
2024/01/05 16:15:28;;;;;;;25.58;14.15;;;;;;;15.87;100.00;101558.81;10614310;27;20124;-86
2024/01/05 16:20:50;;;;;;;53.15;34.38;;;;;;;15.74;100.00;101568.50;10609545;27;20042;-82
2024/01/05 16:26:13;;;;;;;35.53;23.83;;;;;;;15.48;100.00;101567.38;10599631;27;20487;-80
2024/01/05 16:31:37;;;;;;;38.70;24.40;;;;;;;15.26;100.00;101570.69;10609166;27;20074;-78
2024/01/05 16:36:59;;;;;;;25.42;16.48;;;;;;;15.18;100.00;101581.25;10619690;27;20499;-80
2024/01/05 16:42:22;;;;;;;35.40;26.25;;;;;;;15.07;100.00;101582.94;10610716;27;20035;-78
2024/01/05 16:47:46;;;;;;;16.80;9.93;;;;;;;14.99;100.00;101588.16;10610491;27;20050;-84
2024/01/05 16:53:08;;;;;;;27.23;16.25;;;;;;;15.03;100.00;101573.16;10602736;27;20083;-84
2024/01/05 16:58:31;;;;;;;17.48;8.50;;;;;;;14.70;100.00;101589.63;10600975;27;20050;-84
2024/01/05 17:03:54;;;;;;;19.33;9.50;;;;;;;14.58;100.00;101589.44;10622787;27;20395;-86
2024/01/05 17:09:17;;;;;;;59.33;41.08;;;;;;;14.68;100.00;101596.66;10623729;27;20092;-85
2024/01/05 17:14:39;;;;;;;76.15;58.78;;;;;;;14.57;100.00;101604.47;10608405;27;20055;-84
2024/01/05 17:20:04;;;;;;;59.55;43.20;;;;;;;14.44;100.00;101596.34;10616534;27;20035;-84
2024/01/05 17:25:27;;;;;;;60.05;41.40;;;;;;;14.46;100.00;101613.19;10606815;27;20142;-84
2024/01/05 17:30:49;;;;;;;54.33;38.00;;;;;;;14.32;100.00;101597.03;10607881;27;20047;-83
2024/01/05 17:36:14;;;;;;;32.15;16.45;;;;;;;14.10;100.00;101608.25;10603229;27;20142;-86
2024/01/05 17:41:38;;;;;;;21.00;12.27;;;;;;;14.05;100.00;101600.19;10585836;27;20097;-87
2024/01/05 17:47:01;;;;;;;35.28;24.45;;;;;;;14.42;100.00;101600.75;10607506;27;20071;-88
2024/01/05 17:52:25;;;;;;;36.20;22.23;;;;;;;13.86;100.00;101614.03;10603124;27;20749;-85
2024/01/05 17:57:48;;;;;;;19.05;7.80;;;;;;;14.26;100.00;101595.19;10605684;27;20212;-88
2024/01/05 18:03:10;;;;;;;43.17;29.52;;;;;;;14.44;100.00;101604.34;10591804;27;20530;-87
2024/01/05 18:08:34;;;;;;;18.27;10.52;;;;;;;14.38;100.00;101598.91;10598003;27;20411;-86
2024/01/05 18:13:58;;;;;;;43.78;32.78;;;;;;;14.34;100.00;101620.09;10603543;27;20043;-84
2024/01/05 18:19:21;;;;;;;10.65;6.50;;;;;;;14.42;100.00;101614.03;10593842;27;20043;-87
2024/01/05 18:24:45;;;;;;;14.38;9.60;;;;;;;15.05;100.00;101625.44;10587832;27;20142;-85
2024/01/05 18:30:09;;;;;;;13.10;7.30;;;;;;;14.80;100.00;101622.50;10628347;27;20506;-89
2024/01/05 18:35:33;;;;;;;13.57;5.75;;;;;;;14.96;100.00;101625.38;10584177;27;20051;-90
2024/01/05 18:40:57;;;;;;;11.50;5.85;;;;;;;15.11;100.00;101620.19;10606760;27;20498;-86
2024/01/05 18:46:20;;;;;;;19.90;10.57;;;;;;;15.40;100.00;101631.16;10612882;27;20490;-84
2024/01/05 18:51:43;;;;;;;25.05;13.80;;;;;;;15.35;100.00;101637.31;10581604;27;20047;-86
2024/01/05 18:57:07;;;;;;;46.85;28.80;;;;;;;15.60;100.00;101623.38;10592976;27;20047;-85
2024/01/05 19:02:30;;;;;;;34.45;19.67;;;;;;;15.96;100.00;101630.75;10606863;27;20047;-88
2024/01/05 19:07:52;;;;;;;20.92;12.93;;;;;;;15.77;100.00;101629.72;10590499;27;20042;-92
2024/01/05 19:13:17;;;;;;;53.03;31.35;;;;;;;15.83;100.00;101599.59;10587673;27;20042;-88
2024/01/05 19:18:40;;;;;;;47.33;35.47;;;;;;;15.88;100.00;101605.88;10589761;27;20182;-89
2024/01/05 19:24:02;;;;;;;17.70;8.63;;;;;;;15.71;100.00;101607.50;10600595;27;20062;-90
2024/01/05 19:29:30;;;;;;;11.75;5.65;;;;;;;16.16;100.00;101596.28;10604819;27;20051;-89
2024/01/05 19:34:57;;;;;;;17.63;7.18;;;;;;;15.84;100.00;101596.94;10585234;27;20081;-87
2024/01/05 19:40:20;;;;;;;14.07;6.80;;;;;;;15.92;100.00;101613.88;10606521;27;20039;-87
2024/01/05 19:45:44;;;;;;;18.30;10.13;;;;;;;15.97;100.00;101619.25;10605791;27;20047;-90
2024/01/05 19:51:11;;;;;;;16.75;8.70;;;;;;;15.47;100.00;101621.47;10607712;27;20051;-89
2024/01/05 19:56:33;;;;;;;15.45;5.68;;;;;;;15.70;100.00;101627.91;10626910;27;20059;-89
2024/01/05 20:01:58;;;;;;;26.55;19.45;;;;;;;15.33;100.00;101637.28;10615871;27;20050;-89
2024/01/05 20:07:20;;;;;;;23.77;9.38;;;;;;;14.94;100.00;101624.44;10592550;27;20030;-89
2024/01/05 20:12:45;;;;;;;15.68;6.38;;;;;;;15.05;100.00;101625.44;10618625;27;20047;-89
2024/01/05 20:18:09;;;;;;;17.98;5.90;;;;;;;15.07;100.00;101626.38;10622198;27;20556;-89
2024/01/05 20:23:31;;;;;;;51.22;44.08;;;;;;;15.22;100.00;101616.78;10591920;27;20483;-89
2024/01/05 20:28:54;;;;;;;19.52;9.80;;;;;;;15.08;100.00;101622.84;10603383;27;20050;-89
2024/01/05 20:34:18;;;;;;;30.55;18.83;;;;;;;15.21;100.00;101625.63;10614366;27;20143;-89
2024/01/05 20:39:40;;;;;;;15.15;11.55;;;;;;;15.12;100.00;101619.31;10547253;27;20040;-90
2024/01/05 20:45:03;;;;;;;20.02;10.98;;;;;;;14.97;100.00;101613.81;10598149;27;20038;-89
2024/01/05 20:50:27;;;;;;;23.92;10.57;;;;;;;15.14;100.00;101608.72;10625987;27;20051;-88
2024/01/05 20:55:50;;;;;;;19.27;9.93;;;;;;;15.33;100.00;101604.47;10631522;27;20050;-90
2024/01/05 21:01:13;;;;;;;21.17;10.13;;;;;;;15.22;100.00;101625.66;10606871;27;20063;-88
2024/01/05 21:06:41;;;;;;;15.18;7.63;;;;;;;15.26;100.00;101622.13;10581146;27;20047;-86
2024/01/05 21:12:04;;;;;;;9.52;4.05;;;;;;;15.21;100.00;101623.88;10615267;27;20045;-85
2024/01/05 21:17:27;;;;;;;8.70;4.40;;;;;;;15.26;100.00;101614.16;10618041;27;20059;-85
2024/01/05 21:22:52;;;;;;;10.38;3.85;;;;;;;15.44;100.00;101616.97;10596781;27;20095;-86
2024/01/05 21:28:15;;;;;;;13.73;3.75;;;;;;;15.35;100.00;101618.69;10593140;27;20567;-86
2024/01/05 21:33:37;;;;;;;9.55;3.85;;;;;;;15.65;100.00;101603.00;10578690;27;20053;-82
2024/01/05 21:39:01;;;;;;;13.07;4.53;;;;;;;15.63;100.00;101619.84;10650946;27;20042;-82
2024/01/05 21:44:24;;;;;;;9.43;3.42;;;;;;;15.52;100.00;101615.31;10632363;27;20035;-85
2024/01/05 21:49:46;;;;;;;12.80;4.80;;;;;;;15.63;100.00;101603.88;10622211;27;20097;-87
2024/01/05 21:55:10;;;;;;;11.88;5.40;;;;;;;15.45;100.00;101626.75;10623673;27;20075;-84
2024/01/05 22:00:35;;;;;;;12.23;4.47;;;;;;;15.51;100.00;101591.31;10627126;27;20389;-86
2024/01/05 22:05:57;;;;;;;8.40;3.78;;;;;;;15.60;100.00;101602.09;10590220;27;20099;-86
2024/01/05 22:11:21;;;;;;;12.15;3.80;;;;;;;15.23;100.00;101610.59;10606815;27;20430;-88
2024/01/05 22:16:43;;;;;;;12.73;4.15;;;;;;;15.38;100.00;101579.69;10630569;27;20054;-90
2024/01/05 22:22:06;;;;;;;9.25;3.63;;;;;;;15.44;100.00;101626.75;10634345;27;20066;-89
2024/01/05 22:27:30;;;;;;;11.27;7.13;;;;;;;15.52;100.00;101593.09;10635116;27;20045;-89
2024/01/05 22:32:52;;;;;;;14.73;7.70;;;;;;;15.58;100.00;101603.84;10614493;27;20378;-89
2024/01/05 22:38:15;;;;;;;8.60;4.13;;;;;;;15.35;100.00;101600.97;10623957;27;20106;-89
2024/01/05 22:43:40;;;;;;;14.95;8.00;;;;;;;15.58;100.00;101585.22;10611832;27;20526;-89
2024/01/05 22:49:03;;;;;;;5.30;3.33;;;;;;;15.21;100.00;101605.25;10628856;27;20047;-85
2024/01/05 22:54:25;;;;;;;10.63;4.88;;;;;;;15.43;100.00;101583.25;10572192;28;20050;-86
2024/01/05 22:59:49;;;;;;;19.65;11.10;;;;;;;15.58;100.00;101585.22;10574499;28;20070;-85
2024/01/05 23:05:12;;;;;;;13.13;6.50;;;;;;;15.56;100.00;101567.47;10574913;28;20096;-86
2024/01/05 23:10:35;;;;;;;10.85;6.38;;;;;;;15.71;100.00;101573.78;10563027;28;20058;-87
2024/01/05 23:15:59;;;;;;;12.38;4.00;;;;;;;15.71;100.00;101563.13;10554310;28;20079;-84
2024/01/05 23:21:21;;;;;;;11.10;7.95;;;;;;;15.93;100.00;101558.84;10560394;28;20035;-83
2024/01/05 23:26:44;;;;;;;16.92;10.70;;;;;;;16.02;100.00;101534.03;10575764;28;20097;-84
2024/01/05 23:32:08;;;;;;;10.68;5.20;;;;;;;15.72;100.00;101542.72;10570487;28;20135;-85
2024/01/05 23:37:31;;;;;;;9.77;3.50;;;;;;;15.50;100.00;101542.53;10567784;28;20117;-84
2024/01/05 23:42:53;;;;;;;8.82;3.50;;;;;;;15.73;100.00;101548.06;10575166;28;20115;-84
2024/01/05 23:48:17;;;;;;;8.57;2.85;;;;;;;15.63;100.00;101556.84;10565648;28;20039;-84
2024/01/05 23:53:39;;;;;;;8.18;3.05;;;;;;;15.61;100.00;101555.97;10606965;27;20554;-84
2024/01/05 23:59:03;;;;;;;9.60;2.55;;;;;;;15.67;100.00;101555.13;10602921;27;20039;-85
